createdAt,value
2022-12-11T00:00:05.893Z,101294.66
2022-12-11T00:02:32.404Z,101293.88
2022-12-11T00:04:58.923Z,101290.06
2022-12-11T00:07:25.434Z,101288.19
2022-12-11T00:09:51.876Z,101292.84
2022-12-11T00:12:18.324Z,101286.69
2022-12-11T00:14:44.771Z,101283.59
2022-12-11T00:17:11.321Z,101279.38
2022-12-11T00:19:37.776Z,101281.34
2022-12-11T00:22:04.241Z,101286.38
2022-12-11T00:24:30.866Z,101287.53
2022-12-11T00:26:57.327Z,101289.56
2022-12-11T00:29:23.914Z,101277.22
2022-12-11T00:31:50.506Z,101276.91
2022-12-11T00:34:17.054Z,101284.63
2022-12-11T00:36:43.632Z,101280.38
2022-12-11T00:39:10.220Z,101282.31
2022-12-11T00:41:36.971Z,101286.94
2022-12-11T00:44:03.528Z,101286.63
2022-12-11T00:46:30.035Z,101278.16
2022-12-11T00:48:56.503Z,101283.16
2022-12-11T00:51:22.946Z,101287.88
2022-12-11T00:53:49.483Z,101286.72
2022-12-11T00:56:18.983Z,101286.72
2022-12-11T00:58:46.995Z,101277.09
2022-12-11T01:01:16.792Z,101280.25
2022-12-11T01:03:43.355Z,101287.56
2022-12-11T01:06:15.455Z,101286.44
2022-12-11T01:08:42.368Z,101292.25
2022-12-11T01:11:12.078Z,101292.25
2022-12-11T01:13:40.157Z,101296.94
2022-12-11T01:16:08.943Z,101300.38
2022-12-11T01:18:35.625Z,101293.88
2022-12-11T01:21:09.679Z,101300.44
2022-12-11T01:23:37.057Z,101307.41
2022-12-11T01:26:11.841Z,101303.13
2022-12-11T01:28:39.179Z,101297.81
2022-12-11T01:31:10.752Z,101299.72
2022-12-11T01:33:38.003Z,101307.81
2022-12-11T01:36:17.142Z,101299.00
2022-12-11T01:38:44.553Z,101297.50
2022-12-11T01:41:11.798Z,101299.84
2022-12-11T01:44:02.400Z,101293.28
2022-12-11T01:46:29.905Z,101301.00
2022-12-11T01:48:57.542Z,101305.28
2022-12-11T01:51:24.748Z,101297.59
2022-12-11T01:54:02.421Z,101299.13
2022-12-11T01:56:32.471Z,101294.91
2022-12-11T01:59:02.699Z,101296.84
2022-12-11T02:01:37.524Z,101293.75
2022-12-11T02:04:04.571Z,101286.88
2022-12-11T02:06:42.824Z,101279.97
2022-12-11T02:09:13.715Z,101276.13
2022-12-11T02:11:58.916Z,101278.81
2022-12-11T02:14:28.349Z,101285.38
2022-12-11T02:16:57.207Z,101282.31
2022-12-11T02:20:01.351Z,101285.44
2022-12-11T02:22:55.485Z,101286.94
2022-12-11T02:25:46.882Z,101291.22
2022-12-11T02:28:28.191Z,101285.84
2022-12-11T02:31:00.243Z,101292.81
2022-12-11T02:33:42.311Z,101288.19
2022-12-11T02:36:10.348Z,101288.59
2022-12-11T02:38:41.800Z,101291.28
2022-12-11T02:41:10.585Z,101288.59
2022-12-11T02:43:38.945Z,101289.41
2022-12-11T02:46:14.205Z,101284.78
2022-12-11T02:48:42.182Z,101279.41
2022-12-11T02:51:10.067Z,101278.63
2022-12-11T02:53:39.968Z,101277.50
2022-12-11T02:56:12.982Z,101279.44
2022-12-11T02:58:48.028Z,101273.28
2022-12-11T03:01:15.410Z,101282.53
2022-12-11T03:03:42.314Z,101281.00
2022-12-11T03:06:13.939Z,101283.34
2022-12-11T03:08:40.426Z,101275.25
2022-12-11T03:11:13.538Z,101280.66
2022-12-11T03:13:42.598Z,101281.81
2022-12-11T03:16:09.216Z,101277.94
2022-12-11T03:19:12.943Z,101280.25
2022-12-11T03:21:54.687Z,101282.63
2022-12-11T03:24:53.003Z,101274.16
2022-12-11T03:27:44.320Z,101278.03
2022-12-11T03:30:14.671Z,101280.72
2022-12-11T03:32:44.828Z,101283.09
2022-12-11T03:35:29.792Z,101272.72
2022-12-11T03:38:00.487Z,101275.41
2022-12-11T03:40:28.988Z,101273.09
2022-12-11T03:42:57.388Z,101267.69
2022-12-11T03:45:26.234Z,101270.06
2022-12-11T03:47:54.339Z,101274.28
2022-12-11T03:50:23.465Z,101267.75
2022-12-11T03:52:51.021Z,101263.50
2022-12-11T03:55:19.328Z,101255.06
2022-12-11T03:57:45.910Z,101253.50
2022-12-11T04:00:15.735Z,101253.16
2022-12-11T04:02:42.890Z,101253.16
2022-12-11T04:05:10.873Z,101250.47
2022-12-11T04:07:37.802Z,101259.75
2022-12-11T04:10:05.812Z,101253.16
2022-12-11T04:12:32.309Z,101246.28
2022-12-11T04:15:04.630Z,101245.13
2022-12-11T04:17:52.315Z,101239.75
2022-12-11T04:20:38.227Z,101236.69
2022-12-11T04:23:31.012Z,101238.66
2022-12-11T04:26:10.412Z,101235.97
2022-12-11T04:28:37.699Z,101238.66
2022-12-11T04:31:04.971Z,101241.00
2022-12-11T04:33:31.632Z,101238.31
2022-12-11T04:35:59.224Z,101248.31
2022-12-11T04:38:25.704Z,101240.25
2022-12-11T04:41:03.392Z,101246.78
2022-12-11T04:43:30.193Z,101237.94
2022-12-11T04:46:20.752Z,101238.34
2022-12-11T04:48:52.427Z,101230.66
2022-12-11T04:51:22.483Z,101239.16
2022-12-11T04:53:49.111Z,101238.00
2022-12-11T04:56:16.448Z,101236.13
2022-12-11T04:58:44.521Z,101241.50
2022-12-11T05:01:22.368Z,101243.41
2022-12-11T05:03:49.466Z,101240.72
2022-12-11T05:06:16.029Z,101247.69
2022-12-11T05:08:43.074Z,101242.31
2022-12-11T05:11:12.870Z,101231.53
2022-12-11T05:13:39.739Z,101236.94
2022-12-11T05:16:08.644Z,101234.22
2022-12-11T05:18:35.604Z,101234.63
2022-12-11T05:21:04.810Z,101231.94
2022-12-11T05:23:31.568Z,101229.63
2022-12-11T05:26:01.859Z,101228.88
2022-12-11T05:28:31.961Z,101238.53
2022-12-11T05:31:01.369Z,101240.06
2022-12-11T05:33:28.984Z,101230.06
2022-12-11T05:35:55.442Z,101235.47
2022-12-11T05:38:22.652Z,101248.94
2022-12-11T05:41:00.596Z,101240.53
2022-12-11T05:43:29.148Z,101244.38
2022-12-11T05:45:56.753Z,101250.91
2022-12-11T05:48:23.309Z,101251.66
2022-12-11T05:51:00.546Z,101254.75
2022-12-11T05:53:27.413Z,101258.63
2022-12-11T05:55:54.002Z,101251.72
2022-12-11T05:58:21.480Z,101257.09
2022-12-11T06:00:48.398Z,101252.47
2022-12-11T06:03:15.051Z,101256.25
2022-12-11T06:05:42.698Z,101250.41
2022-12-11T06:08:09.731Z,101251.16
2022-12-11T06:10:36.229Z,101258.75
2022-12-11T06:13:02.915Z,101259.00
2022-12-11T06:15:29.348Z,101265.00
2022-12-11T06:17:55.860Z,101272.94
2022-12-11T06:20:22.295Z,101276.72
2022-12-11T06:22:48.746Z,101277.66
2022-12-11T06:25:15.388Z,101294.44
2022-12-11T06:27:41.882Z,101288.13
2022-12-11T06:30:08.996Z,101299.13
2022-12-11T06:32:35.431Z,101286.94
2022-12-11T06:35:01.883Z,101288.31
2022-12-11T06:37:28.379Z,101287.72
2022-12-11T06:39:54.813Z,101291.75
2022-12-11T06:42:21.310Z,101292.31
2022-12-11T06:44:47.995Z,101292.53
2022-12-11T06:47:14.760Z,101301.19
2022-12-11T06:49:41.236Z,101302.56
2022-12-11T06:52:07.779Z,101293.19
2022-12-11T06:54:34.259Z,101295.72
2022-12-11T06:57:00.723Z,101294.06
2022-12-11T06:59:27.200Z,101291.97
2022-12-11T07:01:53.714Z,101283.38
2022-12-11T07:04:20.210Z,101268.59
2022-12-11T07:06:47.419Z,101264.63
2022-12-11T07:09:13.847Z,101262.28
2022-12-11T07:11:40.359Z,101267.59
2022-12-11T07:14:06.823Z,101267.94
2022-12-11T07:16:33.484Z,101263.31
2022-12-11T07:19:00.127Z,101267.94
2022-12-11T07:21:26.641Z,101266.00
2022-12-11T07:23:53.111Z,101281.03
2022-12-11T07:26:22.190Z,101286.09
2022-12-11T07:28:49.005Z,101281.47
2022-12-11T07:31:18.456Z,101291.94
2022-12-11T07:33:45.551Z,101288.47
2022-12-11T07:36:14.357Z,101288.13
2022-12-11T07:38:41.464Z,101279.25
2022-12-11T07:41:12.408Z,101276.22
2022-12-11T07:43:38.982Z,101277.81
2022-12-11T07:46:08.632Z,101274.00
2022-12-11T07:48:36.471Z,101270.19
2022-12-11T07:51:10.281Z,101267.09
2022-12-11T07:53:36.797Z,101272.56
2022-12-11T07:56:04.031Z,101269.53
2022-12-11T07:58:30.504Z,101269.59
2022-12-11T08:00:58.108Z,101264.25
2022-12-11T08:03:25.123Z,101261.16
2022-12-11T08:05:52.597Z,101258.84
2022-12-11T08:08:19.918Z,101262.75
2022-12-11T08:10:46.427Z,101258.94
2022-12-11T08:13:12.931Z,101254.28
2022-12-11T08:15:39.439Z,101250.41
2022-12-11T08:18:06.047Z,101257.75
2022-12-11T08:20:32.852Z,101261.63
2022-12-11T08:22:59.431Z,101264.69
2022-12-11T08:25:25.955Z,101275.16
2022-12-11T08:27:52.430Z,101262.41
2022-12-11T08:30:18.928Z,101267.81
2022-12-11T08:32:45.379Z,101273.22
2022-12-11T08:35:12.282Z,101269.34
2022-12-11T08:37:38.978Z,101275.84
2022-12-11T08:40:06.234Z,101267.38
2022-12-11T08:42:32.673Z,101261.97
2022-12-11T08:44:59.612Z,101258.06
2022-12-11T08:47:26.417Z,101267.38
2022-12-11T08:49:52.918Z,101275.03
2022-12-11T08:52:19.421Z,101280.44
2022-12-11T08:54:45.858Z,101289.78
2022-12-11T08:57:12.326Z,101295.09
2022-12-11T08:59:38.860Z,101287.97
2022-12-11T09:02:05.417Z,101282.09
2022-12-11T09:04:31.938Z,101283.94
2022-12-11T09:06:58.506Z,101287.28
2022-12-11T09:09:25.135Z,101296.75
2022-12-11T09:11:51.600Z,101301.16
2022-12-11T09:14:18.262Z,101293.53
2022-12-11T09:16:44.773Z,101295.25
2022-12-11T09:19:14.349Z,101302.94
2022-12-11T09:21:42.312Z,101288.31
2022-12-11T09:24:10.836Z,101291.31
2022-12-11T09:26:38.120Z,101289.25
2022-12-11T09:29:05.745Z,101302.56
2022-12-11T09:31:35.191Z,101293.50
2022-12-11T09:34:04.578Z,101290.59
2022-12-11T09:36:31.464Z,101283.06
2022-12-11T09:39:05.876Z,101282.88
2022-12-11T09:42:13.930Z,101282.44
2022-12-11T09:44:47.111Z,101276.13
2022-12-11T09:47:20.251Z,101271.78
2022-12-11T09:49:49.361Z,101279.31
2022-12-11T09:52:21.312Z,101269.91
2022-12-11T09:54:54.187Z,101269.19
2022-12-11T09:57:35.876Z,101263.78
2022-12-11T10:00:12.035Z,101265.28
2022-12-11T10:02:50.561Z,101269.75
2022-12-11T10:05:26.532Z,101264.56
2022-12-11T10:08:00.682Z,101265.97
2022-12-11T10:10:54.249Z,101266.16
2022-12-11T10:14:05.933Z,101251.31
2022-12-11T10:16:44.882Z,101255.38
2022-12-11T10:19:38.240Z,101251.94
2022-12-11T10:22:05.096Z,101249.22
2022-12-11T10:27:32.418Z,101241.16
2022-12-11T10:30:07.774Z,101244.13
2022-12-11T10:32:48.618Z,101248.94
2022-12-11T10:35:33.508Z,101232.97
2022-12-11T10:38:30.989Z,101228.25
2022-12-11T10:41:18.198Z,101228.50
2022-12-11T10:43:50.080Z,101226.03
2022-12-11T10:46:28.436Z,101230.59
2022-12-11T10:48:56.305Z,101230.84
2022-12-11T10:51:33.360Z,101226.13
2022-12-11T10:54:17.447Z,101220.66
2022-12-11T10:56:47.760Z,101219.78
2022-12-11T10:59:24.370Z,101229.75
2022-12-11T11:01:51.241Z,101220.03
2022-12-11T11:04:32.202Z,101220.28
2022-12-11T11:07:13.417Z,101222.59
2022-12-11T11:09:40.776Z,101214.78
2022-12-11T11:12:21.351Z,101210.91
2022-12-11T11:14:58.266Z,101209.28
2022-12-11T11:17:24.791Z,101199.56
2022-12-11T11:19:51.247Z,101197.63
2022-12-11T11:22:19.995Z,101210.28
2022-12-11T11:24:56.624Z,101204.44
2022-12-11T11:27:41.119Z,101199.72
2022-12-11T11:30:20.086Z,101200.03
2022-12-11T11:32:46.631Z,101190.06
2022-12-11T11:35:13.329Z,101185.41
2022-12-11T11:37:44.461Z,101189.31
2022-12-11T11:40:18.431Z,101195.06
2022-12-11T11:43:07.478Z,101189.56
2022-12-11T11:45:51.773Z,101181.78
2022-12-11T11:48:21.449Z,101190.97
2022-12-11T11:50:50.528Z,101190.56
2022-12-11T11:53:25.929Z,101182.63
2022-12-11T11:56:10.751Z,101180.38
2022-12-11T11:59:06.736Z,101182.38
2022-12-11T12:01:33.463Z,101188.06
2022-12-11T12:04:02.772Z,101189.69
2022-12-11T12:06:47.480Z,101194.28
2022-12-11T12:09:28.911Z,101182.59
2022-12-11T12:12:22.751Z,101188.75
2022-12-11T12:14:58.956Z,101184.38
2022-12-11T12:17:53.652Z,101186.66
2022-12-11T12:20:44.166Z,101190.03
2022-12-11T12:23:36.682Z,101184.56
2022-12-11T12:26:06.640Z,101178.63
2022-12-11T12:28:35.900Z,101168.88
2022-12-11T12:33:53.499Z,101163.28
2022-12-11T12:36:32.325Z,101164.00
2022-12-11T12:39:28.221Z,101166.56
2022-12-11T12:42:26.584Z,101157.59
2022-12-11T12:45:01.498Z,101150.16
2022-12-11T12:47:32.650Z,101158.19
2022-12-11T12:50:01.248Z,101155.50
2022-12-11T12:52:36.532Z,101154.03
2022-12-11T12:55:18.728Z,101146.22
2022-12-11T12:57:49.135Z,101149.69
2022-12-11T13:00:36.667Z,101151.53
2022-12-11T13:03:16.343Z,101163.44
2022-12-11T13:06:08.284Z,101160.63
2022-12-11T13:08:40.063Z,101149.72
2022-12-11T13:11:09.824Z,101154.75
2022-12-11T13:13:43.071Z,101157.31
2022-12-11T13:16:15.463Z,101157.66
2022-12-11T13:18:44.861Z,101151.38
2022-12-11T13:21:34.779Z,101153.22
2022-12-11T13:24:13.555Z,101157.78
2022-12-11T13:26:41.311Z,101152.69
2022-12-11T13:29:28.348Z,101148.81
2022-12-11T13:32:00.664Z,101153.38
2022-12-11T13:34:32.571Z,101161.06
2022-12-11T13:37:00.058Z,101158.69
2022-12-11T13:39:30.528Z,101162.47
2022-12-11T13:42:04.754Z,101164.75
2022-12-11T13:44:38.166Z,101164.31
2022-12-11T13:47:07.059Z,101165.50
2022-12-11T13:49:40.465Z,101163.22
2022-12-11T13:52:08.045Z,101174.50
2022-12-11T13:54:38.879Z,101176.44
2022-12-11T13:57:08.607Z,101171.13
2022-12-11T13:59:42.389Z,101179.00
2022-12-11T14:02:32.461Z,101179.44
2022-12-11T14:05:02.985Z,101179.84
2022-12-11T14:07:35.349Z,101182.63
2022-12-11T14:10:37.322Z,101178.81
2022-12-11T14:13:33.408Z,101183.94
2022-12-11T14:16:00.111Z,101178.94
2022-12-11T14:18:30.422Z,101178.94
2022-12-11T14:20:59.554Z,101183.16
2022-12-11T14:23:28.877Z,101178.19
2022-12-11T14:26:03.022Z,101177.44
2022-12-11T14:28:37.617Z,101185.13
2022-12-11T14:31:06.295Z,101183.94
2022-12-11T14:33:35.590Z,101183.94
2022-12-11T14:36:03.132Z,101185.88
2022-12-11T14:38:35.232Z,101188.59
2022-12-11T14:41:08.151Z,101180.91
2022-12-11T14:43:44.313Z,101186.63
2022-12-11T14:46:23.678Z,101189.34
2022-12-11T14:49:00.828Z,101179.72
2022-12-11T14:51:32.886Z,101186.63
2022-12-11T14:53:59.976Z,101173.53
2022-12-11T14:56:29.070Z,101178.94
2022-12-11T14:59:03.747Z,101188.91
2022-12-11T15:01:33.064Z,101192.38
2022-12-11T15:04:14.758Z,101190.00
2022-12-11T15:06:49.591Z,101193.59
2022-12-11T15:09:26.292Z,101186.63
2022-12-11T15:11:55.314Z,101190.53
2022-12-11T15:14:23.245Z,101191.97
2022-12-11T15:16:52.375Z,101190.44
2022-12-11T15:19:25.843Z,101193.91
2022-12-11T15:21:53.119Z,101191.56
2022-12-11T15:24:46.662Z,101188.75
2022-12-11T15:27:21.908Z,101189.81
2022-12-11T15:29:48.514Z,101186.38
2022-12-11T15:32:15.059Z,101182.03
2022-12-11T15:34:47.196Z,101186.28
2022-12-11T15:37:24.909Z,101184.88
2022-12-11T15:39:53.305Z,101182.47
2022-12-11T15:42:32.188Z,101179.34
2022-12-11T15:44:59.996Z,101183.22
2022-12-11T15:47:31.074Z,101185.63
2022-12-11T15:50:28.314Z,101186.97
2022-12-11T15:52:56.417Z,101181.22
2022-12-11T15:55:27.232Z,101187.78
2022-12-11T15:58:00.141Z,101181.59
2022-12-11T16:00:28.181Z,101187.16
2022-12-11T16:02:55.835Z,101195.53
2022-12-11T16:05:22.641Z,101186.16
2022-12-11T16:07:52.253Z,101191.13
2022-12-11T16:10:20.224Z,101186.75
2022-12-11T16:12:47.355Z,101189.34
2022-12-11T16:15:21.403Z,101193.03
2022-12-11T16:17:49.850Z,101197.03
2022-12-11T16:20:16.372Z,101192.31
2022-12-11T16:22:42.992Z,101187.44
2022-12-11T16:25:09.981Z,101189.91
2022-12-11T16:27:36.855Z,101197.34
2022-12-11T16:30:03.820Z,101197.06
2022-12-11T16:32:30.539Z,101197.63
2022-12-11T16:35:00.683Z,101192.97
2022-12-11T16:37:27.424Z,101192.31
2022-12-11T16:39:54.023Z,101187.78
2022-12-11T16:42:20.516Z,101190.56
2022-12-11T16:44:47.206Z,101187.13
2022-12-11T16:47:13.716Z,101183.25
2022-12-11T16:49:42.052Z,101187.38
2022-12-11T16:52:08.979Z,101196.69
2022-12-11T16:54:35.584Z,101189.25
2022-12-11T16:57:02.219Z,101192.09
2022-12-11T16:59:37.475Z,101193.06
2022-12-11T17:02:04.826Z,101192.91
2022-12-11T17:04:33.977Z,101197.63
2022-12-11T17:07:00.485Z,101189.03
2022-12-11T17:09:26.895Z,101193.56
2022-12-11T17:11:53.601Z,101189.16
2022-12-11T17:14:20.286Z,101190.81
2022-12-11T17:16:47.200Z,101180.53
2022-12-11T17:19:14.282Z,101184.94
2022-12-11T17:21:40.827Z,101189.69
2022-12-11T17:24:08.305Z,101187.50
2022-12-11T17:26:35.014Z,101180.75
2022-12-11T17:29:01.778Z,101187.09
2022-12-11T17:31:28.480Z,101185.31
2022-12-11T17:33:57.381Z,101187.41
2022-12-11T17:36:24.009Z,101185.22
2022-12-11T17:38:50.591Z,101189.78
2022-12-11T17:41:20.784Z,101192.75
2022-12-11T17:43:49.665Z,101184.88
2022-12-11T17:46:17.268Z,101178.09
2022-12-11T17:48:43.831Z,101183.31
2022-12-11T17:51:13.648Z,101180.53
2022-12-11T17:53:40.295Z,101173.84
2022-12-11T17:56:08.719Z,101178.41
2022-12-11T17:58:35.526Z,101185.66
2022-12-11T18:01:06.931Z,101173.22
2022-12-11T18:03:33.644Z,101178.97
2022-12-11T18:06:05.150Z,101176.59
2022-12-11T18:08:31.983Z,101170.75
2022-12-11T18:11:08.798Z,101168.81
2022-12-11T18:13:35.562Z,101182.66
2022-12-11T18:16:06.677Z,101179.97
2022-12-11T18:18:33.794Z,101180.72
2022-12-11T18:21:01.045Z,101181.69
2022-12-11T18:23:27.765Z,101177.03
2022-12-11T18:25:54.753Z,101181.69
2022-12-11T18:28:21.493Z,101179.72
2022-12-11T18:30:48.223Z,101179.72
2022-12-11T18:33:15.094Z,101183.97
2022-12-11T18:35:41.677Z,101193.59
2022-12-11T18:38:08.533Z,101186.22
2022-12-11T18:40:35.023Z,101191.22
2022-12-11T18:43:01.610Z,101189.28
2022-12-11T18:45:28.100Z,101182.66
2022-12-11T18:47:56.484Z,101176.81
2022-12-11T18:50:23.275Z,101176.81
2022-12-11T18:52:53.870Z,101170.22
2022-12-11T18:55:20.997Z,101178.72
2022-12-11T18:57:47.493Z,101174.03
2022-12-11T19:00:14.705Z,101167.41
2022-12-11T19:02:41.167Z,101172.06
2022-12-11T19:05:08.005Z,101168.63
2022-12-11T19:07:34.466Z,101170.88
2022-12-11T19:10:01.188Z,101184.00
2022-12-11T19:12:27.640Z,101176.72
2022-12-11T19:14:54.557Z,101171.22
2022-12-11T19:17:21.062Z,101172.41
2022-12-11T19:19:47.600Z,101180.13
2022-12-11T19:22:14.966Z,101175.53
2022-12-11T19:24:41.448Z,101184.00
2022-12-11T19:27:13.294Z,101176.63
2022-12-11T19:29:40.366Z,101181.63
2022-12-11T19:32:06.872Z,101185.53
2022-12-11T19:34:33.597Z,101188.97
2022-12-11T19:37:00.216Z,101178.16
2022-12-11T19:39:26.845Z,101182.84
2022-12-11T19:41:53.337Z,101183.91
2022-12-11T19:44:19.825Z,101181.63
2022-12-11T19:46:46.406Z,101176.63
2022-12-11T19:49:13.097Z,101181.28
2022-12-11T19:51:41.467Z,101181.28
2022-12-11T19:54:11.984Z,101184.75
2022-12-11T19:56:38.517Z,101187.88
2022-12-11T19:59:08.332Z,101186.38
2022-12-11T20:01:36.566Z,101179.44
2022-12-11T20:04:10.216Z,101176.00
2022-12-11T20:06:39.755Z,101179.09
2022-12-11T20:09:10.716Z,101172.19
2022-12-11T20:11:39.247Z,101181.06
2022-12-11T20:14:06.044Z,101176.81
2022-12-11T20:17:02.050Z,101179.53
2022-12-11T20:19:19.979Z,101179.53
2022-12-11T20:21:46.456Z,101174.88
2022-12-11T20:24:12.965Z,101172.59
2022-12-11T20:26:39.565Z,101174.56
2022-12-11T20:29:08.119Z,101171.84
2022-12-11T20:31:35.706Z,101169.13
2022-12-11T20:34:02.332Z,101167.94
2022-12-11T20:36:28.891Z,101171.41
2022-12-11T20:38:55.814Z,101176.06
2022-12-11T20:41:24.751Z,101169.91
2022-12-11T20:43:53.961Z,101174.88
2022-12-11T20:46:25.378Z,101172.19
2022-12-11T20:48:52.851Z,101172.19
2022-12-11T20:51:25.795Z,101167.09
2022-12-11T20:53:58.275Z,101170.59
2022-12-11T20:56:30.593Z,101167.88
2022-12-11T20:58:59.385Z,101168.28
2022-12-11T21:01:28.390Z,101167.88
2022-12-11T21:03:55.276Z,101168.19
2022-12-11T21:06:33.991Z,101168.94
2022-12-11T21:09:06.265Z,101169.69
2022-12-11T21:11:32.752Z,101167.75
2022-12-11T21:13:59.431Z,101170.47
2022-12-11T21:16:26.258Z,101170.47
2022-12-11T21:18:52.833Z,101174.25
2022-12-11T21:21:19.456Z,101172.00
2022-12-11T21:23:45.961Z,101176.97
2022-12-11T21:26:12.846Z,101180.44
2022-12-11T21:28:39.362Z,101183.13
2022-12-11T21:31:09.347Z,101180.44
2022-12-11T21:33:36.244Z,101180.00
2022-12-11T21:36:03.778Z,101181.19
2022-12-11T21:38:30.237Z,101177.28
2022-12-11T21:40:56.776Z,101180.75
2022-12-11T21:43:24.764Z,101178.84
2022-12-11T21:46:00.921Z,101183.47
2022-12-11T21:48:28.430Z,101172.66
2022-12-11T21:50:54.911Z,101176.53
2022-12-11T21:53:21.358Z,101165.72
2022-12-11T21:55:47.754Z,101174.16
2022-12-11T21:58:14.238Z,101164.53
2022-12-11T22:00:40.739Z,101170.72
2022-12-11T22:03:07.394Z,101169.50
2022-12-11T22:05:33.896Z,101164.84
2022-12-11T22:08:00.401Z,101170.25
2022-12-11T22:10:28.823Z,101175.25
2022-12-11T22:12:55.574Z,101175.69
2022-12-11T22:15:22.229Z,101171.78
2022-12-11T22:17:48.805Z,101177.19
2022-12-11T22:20:15.269Z,101171.78
2022-12-11T22:22:41.878Z,101175.69
2022-12-11T22:25:09.539Z,101179.16
2022-12-11T22:27:36.398Z,101182.28
2022-12-11T22:30:03.752Z,101180.44
2022-12-11T22:32:30.291Z,101179.69
2022-12-11T22:34:57.736Z,101187.13
2022-12-11T22:37:25.254Z,101187.66
2022-12-11T22:39:51.761Z,101184.28
2022-12-11T22:42:18.271Z,101187.09
2022-12-11T22:44:44.771Z,101184.91
2022-12-11T22:47:11.363Z,101180.00
2022-12-11T22:49:37.867Z,101176.63
2022-12-11T22:52:04.572Z,101179.84
2022-12-11T22:54:31.183Z,101176.16
2022-12-11T22:56:57.621Z,101187.50
2022-12-11T22:59:24.064Z,101179.56
2022-12-11T23:01:50.571Z,101187.78
2022-12-11T23:04:17.343Z,101191.41
2022-12-11T23:06:43.820Z,101200.78
2022-12-11T23:09:10.901Z,101199.34
2022-12-11T23:11:38.466Z,101190.22
2022-12-11T23:14:07.561Z,101188.03
2022-12-11T23:16:34.092Z,101190.06
2022-12-11T23:19:01.029Z,101191.31
2022-12-11T23:21:28.811Z,101195.28
2022-12-11T23:23:56.587Z,101187.00
2022-12-11T23:26:23.384Z,101194.44
2022-12-11T23:28:50.035Z,101193.81
2022-12-11T23:31:16.892Z,101187.41
2022-12-11T23:33:43.477Z,101198.69
2022-12-11T23:36:10.161Z,101190.66
2022-12-11T23:38:36.785Z,101186.19
2022-12-11T23:41:04.357Z,101182.47
2022-12-11T23:43:31.477Z,101185.53
2022-12-11T23:45:58.008Z,101189.59
2022-12-11T23:48:24.666Z,101197.78
2022-12-11T23:50:51.455Z,101193.66
2022-12-11T23:53:18.087Z,101201.06
2022-12-11T23:55:45.332Z,101208.13
2022-12-11T23:58:12.063Z,101209.81
